KSPI/SPI METAR and TAF weather

Enter ICAO airport designator
Station Type Date Time Source
KSPI METAR 2022/12/04 05:52 UTC NOAA

KSPI 040552Z AUTO A3042 RMK AO2 SLPNO 401221067 58023 PWINO FZRANO $


Station Type Date Time Source
KSPI Decoded METAR 2022/12/04 05:52 UTC NOAA

ABRAHAM LINCOLN CAPITAL AIRPORT , IL, United States (KSPI) 39-51N 89-41W 181M
Dec 04, 2022 - 12:52 AM EST / 2022.12.04 0552 UTC
Pressure (altimeter): 30.42 in. Hg (1030 hPa)
Pressure tendency: 0.07 inches (2.3 hPa) lower than three hours ago
ob: KSPI 040552Z AUTO A3042 RMK AO2 SLPNO 401221067 58023 PWINO FZRANO
cycle: 6

Station Type Date Time Source
KSPI TAF 2022/12/04 06:22 UTC NOAA

TAF KSPI 040520Z 0406/0506 22003KT P6SM BKN250
FM041400 21010KT P6SM FEW250
FM050000 18006KT P6SM SCT250

Example: see airport list